Time;durP1;ratioP1;P1;durP2;ratioP2;P2;SDS_P1;SDS_P2;PMS_P1;PMS_P2;Temp;Humidity;BMP_temperature;BMP_pressure;BME280_temperature;BME280_humidity;BME280_pressure;Samples;Min_cycle;Max_cycle;Signal;HPM_P1;HPM_P2
2024/04/12 00:00:38;;;;;;;5.70;1.88;;;13.70;99.90;;;;;;6579929;21;19997;-92
2024/04/12 00:03:10;;;;;;;6.82;1.75;;;13.70;99.90;;;;;;6580708;21;19997;-90
2024/04/12 00:05:47;;;;;;;5.82;2.00;;;13.60;99.90;;;;;;6583041;21;19992;-90
2024/04/12 00:08:20;;;;;;;7.10;1.45;;;13.60;99.90;;;;;;6580357;21;20000;-92
2024/04/12 00:10:59;;;;;;;6.93;2.20;;;13.60;99.90;;;;;;6578452;21;20394;-91
2024/04/12 00:13:31;;;;;;;5.43;1.90;;;13.60;99.90;;;;;;6581264;21;19998;-92
2024/04/12 00:16:08;;;;;;;3.53;1.88;;;13.60;99.90;;;;;;6583270;21;20004;-91
2024/04/12 00:18:39;;;;;;;7.05;2.08;;;13.50;99.90;;;;;;6583101;21;19992;-91
2024/04/12 00:21:08;;;;;;;4.97;1.73;;;13.50;99.90;;;;;;6580979;21;20008;-91
2024/04/12 00:23:41;;;;;;;6.40;1.80;;;13.50;99.90;;;;;;6580148;21;20006;-92
2024/04/12 00:26:11;;;;;;;3.00;1.85;;;13.50;99.90;;;;;;6586519;21;20062;-92
2024/04/12 00:28:43;;;;;;;8.70;2.10;;;13.50;99.90;;;;;;6581369;21;19995;-92
2024/04/12 00:31:15;;;;;;;3.70;1.65;;;13.50;99.90;;;;;;6540262;21;19993;-91
2024/04/12 00:33:48;;;;;;;7.18;1.98;;;13.50;99.90;;;;;;6583197;21;20009;-92
2024/04/12 00:36:17;;;;;;;6.00;1.80;;;13.40;99.90;;;;;;6581155;21;20078;-92
2024/04/12 00:38:46;;;;;;;3.58;1.67;;;13.40;99.90;;;;;;6583562;21;20008;-90
2024/04/12 00:41:19;;;;;;;4.88;1.35;;;13.40;99.90;;;;;;6586416;21;20003;-91
2024/04/12 00:43:53;;;;;;;8.02;1.52;;;13.30;99.90;;;;;;6587218;21;20012;-90
2024/04/12 00:46:24;;;;;;;6.68;1.45;;;13.30;99.90;;;;;;6580958;21;20070;-91
2024/04/12 00:48:59;;;;;;;5.85;1.60;;;13.30;99.90;;;;;;6580376;21;20407;-91
2024/04/12 00:51:37;;;;;;;5.30;1.25;;;13.30;99.90;;;;;;6543703;21;19992;-91
2024/04/12 00:54:09;;;;;;;1.20;0.98;;;13.30;99.90;;;;;;6580459;21;19996;-91
2024/04/12 00:56:38;;;;;;;2.90;0.82;;;13.20;99.90;;;;;;6579799;21;20025;-90
2024/04/12 00:59:22;;;;;;;3.28;1.65;;;13.20;99.90;;;;;;6580286;21;19996;-90
2024/04/12 01:01:55;;;;;;;2.03;1.17;;;13.20;99.90;;;;;;6579912;21;19992;-92
2024/04/12 01:04:21;;;;;;;2.42;0.90;;;13.10;99.90;;;;;;6575577;21;20074;-90
2024/04/12 01:06:48;;;;;;;2.20;1.40;;;13.10;99.90;;;;;;6581182;21;20021;-92
2024/04/12 01:09:21;;;;;;;2.60;0.98;;;13.10;99.90;;;;;;6582757;21;20000;-92
2024/04/12 01:11:47;;;;;;;1.92;1.27;;;13.00;99.90;;;;;;6580124;21;19988;-92
2024/04/12 01:14:16;;;;;;;2.65;1.05;;;13.00;99.90;;;;;;6579922;21;20006;-90
2024/04/12 01:16:42;;;;;;;2.78;1.30;;;13.00;99.90;;;;;;6581195;21;20000;-91
2024/04/12 01:19:12;;;;;;;2.25;1.00;;;12.90;99.90;;;;;;6579210;21;20003;-92
2024/04/12 01:21:44;;;;;;;3.92;1.00;;;12.90;99.90;;;;;;6578978;21;19992;-91
2024/04/12 01:24:18;;;;;;;1.98;0.85;;;12.80;99.90;;;;;;6581147;21;19992;-92
2024/04/12 01:26:49;;;;;;;2.95;0.90;;;12.80;99.90;;;;;;6581298;21;20007;-91
2024/04/12 01:29:17;;;;;;;2.05;1.00;;;12.70;99.90;;;;;;6580482;21;20062;-92
2024/04/12 01:31:44;;;;;;;1.98;0.98;;;12.70;99.90;;;;;;6575522;21;20051;-92
2024/04/12 01:34:13;;;;;;;5.22;0.73;;;12.60;99.90;;;;;;6575521;21;20291;-93
2024/04/12 01:36:39;;;;;;;5.03;0.85;;;12.60;99.90;;;;;;6493736;21;20071;-91
2024/04/12 01:39:11;;;;;;;1.58;0.60;;;12.50;99.90;;;;;;6577966;21;20299;-91
2024/04/12 01:41:38;;;;;;;1.38;0.45;;;12.50;99.90;;;;;;6578251;21;19993;-91
2024/04/12 01:44:08;;;;;;;1.25;0.40;;;12.40;99.90;;;;;;6579862;21;19992;-91
2024/04/12 01:46:39;;;;;;;0.88;0.35;;;12.40;99.90;;;;;;6577665;21;20008;-91
2024/04/12 01:49:10;;;;;;;3.40;0.50;;;12.30;99.90;;;;;;6537849;21;19988;-90
2024/04/12 01:51:37;;;;;;;4.50;0.82;;;12.30;99.90;;;;;;6536928;21;20010;-91
2024/04/12 01:54:14;;;;;;;0.68;0.32;;;12.20;99.90;;;;;;6580924;21;20390;-90
2024/04/12 01:56:50;;;;;;;1.27;0.47;;;12.20;99.90;;;;;;6580403;21;19992;-91
2024/04/12 01:59:23;;;;;;;0.75;0.40;;;12.10;99.90;;;;;;6595846;21;19992;-91
2024/04/12 02:01:52;;;;;;;0.88;0.40;;;12.10;99.90;;;;;;6605935;21;20409;-90
2024/04/12 02:04:20;;;;;;;0.52;0.30;;;12.00;99.90;;;;;;6593619;21;20399;-90
2024/04/12 02:06:51;;;;;;;1.05;0.30;;;11.90;99.90;;;;;;6580082;21;19988;-90
2024/04/12 02:09:19;;;;;;;1.08;0.60;;;11.90;99.90;;;;;;6583810;21;20071;-90
2024/04/12 02:11:53;;;;;;;1.48;0.30;;;11.80;99.90;;;;;;6580799;21;20003;-91
2024/04/12 02:14:19;;;;;;;0.95;0.40;;;11.80;99.90;;;;;;6580416;21;19985;-90
2024/04/12 02:16:49;;;;;;;1.35;0.40;;;11.70;99.90;;;;;;6580789;21;20065;-91
2024/04/12 02:19:15;;;;;;;3.15;0.65;;;11.60;99.90;;;;;;6538485;21;19984;-91
2024/04/12 02:21:41;;;;;;;5.40;0.52;;;11.60;99.90;;;;;;6580604;21;19989;-93
2024/04/12 02:24:13;;;;;;;1.15;0.40;;;11.50;99.90;;;;;;6579579;21;20004;-92
2024/04/12 02:26:42;;;;;;;0.63;0.22;;;11.50;99.90;;;;;;6624868;21;20009;-91
2024/04/12 02:29:08;;;;;;;2.28;0.45;;;11.40;99.90;;;;;;6582159;21;20015;-88
2024/04/12 02:31:37;;;;;;;2.05;0.50;;;11.40;99.90;;;;;;6584557;21;20068;-90
2024/04/12 02:34:03;;;;;;;1.08;0.40;;;11.30;99.90;;;;;;6582701;21;19993;-91
2024/04/12 02:36:33;;;;;;;0.38;0.28;;;11.30;99.90;;;;;;6583782;21;20043;-91
2024/04/12 02:39:04;;;;;;;0.65;0.40;;;11.20;99.90;;;;;;6586119;21;20001;-91
2024/04/12 02:41:37;;;;;;;2.35;0.40;;;11.10;99.90;;;;;;6583792;21;19993;-91
2024/04/12 02:44:06;;;;;;;0.98;0.25;;;11.10;99.90;;;;;;6583890;21;20000;-90
2024/04/12 02:46:35;;;;;;;0.73;0.30;;;11.00;99.90;;;;;;6583792;21;20070;-90
2024/04/12 02:49:06;;;;;;;0.55;0.25;;;11.00;99.90;;;;;;6581709;21;20000;-91
2024/04/12 02:51:34;;;;;;;2.42;0.32;;;11.00;99.90;;;;;;6582201;21;20021;-91
2024/04/12 02:54:01;;;;;;;2.13;1.17;;;10.90;99.90;;;;;;6582152;21;19992;-90
2024/04/12 02:56:32;;;;;;;0.65;0.30;;;10.90;99.90;;;;;;6582130;21;20002;-90
2024/04/12 02:59:05;;;;;;;2.25;0.40;;;10.90;99.90;;;;;;6581742;21;20024;-90
2024/04/12 03:01:33;;;;;;;0.63;0.30;;;10.80;99.90;;;;;;6582002;21;20003;-91
2024/04/12 03:03:59;;;;;;;2.03;0.60;;;10.80;99.90;;;;;;6580405;21;20078;-90
2024/04/12 03:06:32;;;;;;;1.80;0.10;;;10.80;99.90;;;;;;6582683;21;20004;-90
2024/04/12 03:09:02;;;;;;;0.65;0.20;;;10.80;99.90;;;;;;6537372;21;19997;-91
2024/04/12 03:11:37;;;;;;;1.35;0.30;;;10.70;99.90;;;;;;6581020;21;20508;-90
2024/04/12 03:14:09;;;;;;;4.90;0.45;;;10.70;99.90;;;;;;6581217;21;20021;-90
2024/04/12 03:17:04;;;;;;;0.85;0.28;;;10.60;99.90;;;;;;6581527;21;20029;-91
2024/04/12 03:19:38;;;;;;;2.10;0.50;;;10.60;99.90;;;;;;6584575;21;19999;-90
2024/04/12 03:22:15;;;;;;;0.85;0.30;;;10.60;99.90;;;;;;6584589;21;19992;-91
2024/04/12 03:25:00;;;;;;;0.10;0.10;;;10.60;99.90;;;;;;6530757;22;20064;-91
2024/04/12 03:27:28;;;;;;;1.80;0.40;;;10.60;99.90;;;;;;6516690;21;19996;-90
2024/04/12 03:29:54;;;;;;;0.70;0.40;;;10.60;99.90;;;;;;6538665;21;20004;-92
2024/04/12 03:32:20;;;;;;;0.73;0.20;;;10.60;99.90;;;;;;6580767;21;20004;-91
2024/04/12 03:34:49;;;;;;;1.92;0.30;;;10.70;99.90;;;;;;6582777;21;20295;-91
2024/04/12 03:37:36;;;;;;;0.93;0.30;;;10.60;99.90;;;;;;6537692;21;19996;-91
2024/04/12 03:40:15;;;;;;;0.20;0.17;;;10.60;99.90;;;;;;6580845;21;19997;-90
2024/04/12 03:42:48;;;;;;;0.10;0.10;;;10.70;99.90;;;;;;6580641;21;20095;-91
2024/04/12 03:45:17;;;;;;;1.38;0.20;;;10.60;99.90;;;;;;6582512;21;20007;-90
2024/04/12 03:47:45;;;;;;;0.25;0.20;;;10.60;99.90;;;;;;6579062;21;19988;-91
2024/04/12 03:50:14;;;;;;;0.63;0.20;;;10.60;99.90;;;;;;6580593;21;20082;-91
2024/04/12 03:52:56;;;;;;;0.30;0.20;;;10.70;99.90;;;;;;6537420;21;19992;-90
2024/04/12 03:55:25;;;;;;;1.80;0.32;;;10.60;99.90;;;;;;6542794;21;20414;-91
2024/04/12 03:57:51;;;;;;;0.20;0.20;;;10.60;99.90;;;;;;6580256;21;19989;-91
2024/04/12 04:00:17;;;;;;;0.30;0.10;;;10.60;99.90;;;;;;6536746;21;20016;-91
2024/04/12 04:02:51;;;;;;;0.20;0.20;;;10.60;99.90;;;;;;6580096;21;20270;-90
2024/04/12 04:05:25;;;;;;;0.70;0.28;;;10.60;99.90;;;;;;6580641;21;20046;-91
2024/04/12 04:07:54;;;;;;;0.57;0.32;;;10.60;99.90;;;;;;6580502;21;19993;-90
2024/04/12 04:10:25;;;;;;;1.38;0.40;;;10.70;99.90;;;;;;6581776;21;20004;-91
2024/04/12 04:12:53;;;;;;;;;;;10.60;99.90;;;;;;6533159;21;20391;-91
2024/04/12 04:15:25;;;;;;;0.70;0.28;;;10.60;99.90;;;;;;6579641;21;20171;-91
2024/04/12 04:17:51;;;;;;;3.22;0.43;;;10.60;99.90;;;;;;6582243;21;19992;-91
2024/04/12 04:20:20;;;;;;;3.92;0.40;;;10.60;99.90;;;;;;6581655;21;19988;-90
2024/04/12 04:23:02;;;;;;;5.13;0.68;;;10.60;99.90;;;;;;6580694;21;20067;-90
2024/04/12 04:25:40;;;;;;;0.30;0.20;;;10.60;99.90;;;;;;6579341;21;20004;-90
2024/04/12 04:28:10;;;;;;;1.35;0.35;;;10.60;99.90;;;;;;6581065;21;20003;-90
2024/04/12 04:30:38;;;;;;;0.73;0.40;;;10.60;99.90;;;;;;6582842;21;20078;-91
2024/04/12 04:33:04;;;;;;;0.28;0.20;;;10.60;99.90;;;;;;6537109;21;20000;-92
2024/04/12 04:35:33;;;;;;;1.00;0.43;;;10.60;99.90;;;;;;6539383;21;19996;-91
2024/04/12 04:38:00;;;;;;;0.55;0.30;;;10.60;99.90;;;;;;6583987;21;20414;-90
2024/04/12 04:40:27;;;;;;;0.82;0.30;;;10.60;99.90;;;;;;6581594;21;19988;-91
2024/04/12 04:42:54;;;;;;;1.73;0.32;;;10.60;99.90;;;;;;6580673;21;20074;-91
2024/04/12 04:45:31;;;;;;;0.28;0.20;;;10.60;99.90;;;;;;6580580;21;19989;-91
2024/04/12 04:47:57;;;;;;;2.67;0.50;;;10.60;99.90;;;;;;6579578;21;19989;-90
2024/04/12 04:50:25;;;;;;;3.08;0.45;;;10.60;99.90;;;;;;6582725;21;20003;-91
2024/04/12 04:52:51;;;;;;;1.02;0.50;;;10.60;99.90;;;;;;6585889;21;20008;-93
2024/04/12 04:55:17;;;;;;;2.78;0.40;;;10.60;99.90;;;;;;6589451;21;20012;-90
2024/04/12 04:57:43;;;;;;;0.70;0.40;;;10.50;99.90;;;;;;6591166;21;20000;-90
2024/04/12 05:00:22;;;;;;;1.17;0.30;;;10.50;99.90;;;;;;6596448;21;20020;-91
2024/04/12 05:02:50;;;;;;;1.67;0.40;;;10.60;99.90;;;;;;6598736;21;20007;-92
2024/04/12 05:05:23;;;;;;;0.80;0.38;;;10.50;99.90;;;;;;6548621;21;19992;-91
2024/04/12 05:07:52;;;;;;;2.22;0.55;;;10.50;99.90;;;;;;6590629;21;20066;-91
2024/04/12 05:10:20;;;;;;;0.50;0.20;;;10.50;99.90;;;;;;6589343;21;19996;-89
2024/04/12 05:12:51;;;;;;;1.13;0.40;;;10.50;99.90;;;;;;6588818;21;19989;-90
2024/04/12 05:18:07;;;;;;;4.38;0.47;;;10.60;99.90;;;;;;6603696;21;20007;-90
2024/04/12 05:20:57;;;;;;;0.43;0.30;;;10.60;99.90;;;;;;6561004;21;19996;-90
2024/04/12 05:23:24;;;;;;;0.80;0.60;;;10.50;99.90;;;;;;6581698;21;20007;-92
2024/04/12 05:25:51;;;;;;;1.30;0.45;;;10.60;99.90;;;;;;6538108;21;19992;-90
2024/04/12 05:28:27;;;;;;;3.42;0.60;;;10.60;99.90;;;;;;6580165;21;20082;-90
2024/04/12 05:30:54;;;;;;;1.98;0.40;;;10.50;99.90;;;;;;6538661;21;20003;-91
2024/04/12 05:33:22;;;;;;;1.77;0.55;;;10.50;99.90;;;;;;6579259;21;19992;-92
2024/04/12 05:35:48;;;;;;;2.42;0.40;;;10.50;99.90;;;;;;6579988;21;20003;-92
2024/04/12 05:38:20;;;;;;;3.10;0.43;;;10.50;99.90;;;;;;6580413;21;20066;-92
2024/04/12 05:40:52;;;;;;;3.70;0.70;;;10.50;99.90;;;;;;6580292;21;20075;-92
2024/04/12 05:43:21;;;;;;;0.88;0.50;;;10.40;99.90;;;;;;6581524;21;19997;-93
2024/04/12 05:45:50;;;;;;;2.33;0.43;;;10.50;99.90;;;;;;6539901;21;20003;-91
2024/04/12 05:48:21;;;;;;;3.78;0.65;;;10.40;99.90;;;;;;6585284;21;19996;-91
2024/04/12 05:50:53;;;;;;;1.00;0.50;;;10.40;99.90;;;;;;6594514;21;19997;-91
2024/04/12 05:53:24;;;;;;;2.15;0.50;;;10.40;99.90;;;;;;6600436;21;19996;-91
2024/04/12 05:56:20;;;;;;;1.08;0.60;;;10.40;99.90;;;;;;6554825;21;20000;-92
2024/04/12 05:58:40;;;;;;;0.77;0.43;;;10.50;99.90;;;;;;6584521;21;20051;-88
2024/04/12 06:01:51;;;;;;;2.17;0.65;;;10.40;99.90;;;;;;6581166;21;20037;-90
2024/04/12 06:04:20;;;;;;;1.92;0.90;;;10.40;99.90;;;;;;6580281;21;20350;-90
2024/04/12 06:06:47;;;;;;;6.97;0.90;;;10.40;99.90;;;;;;6581630;21;20488;-91
2024/04/12 06:09:23;;;;;;;2.33;0.60;;;10.40;99.90;;;;;;6579815;21;19996;-91
2024/04/12 06:12:05;;;;;;;2.25;0.75;;;10.40;99.90;;;;;;6580239;21;19996;-91
2024/04/12 06:14:38;;;;;;;1.45;0.50;;;10.50;99.90;;;;;;6538512;21;20008;-91
2024/04/12 06:17:08;;;;;;;4.38;0.80;;;10.50;99.90;;;;;;6581547;21;20016;-91
2024/04/12 06:19:39;;;;;;;5.47;1.52;;;10.50;99.90;;;;;;6581029;21;20096;-90
2024/04/12 06:22:12;;;;;;;2.22;0.60;;;10.50;99.90;;;;;;6585299;21;20078;-90
2024/04/12 06:24:49;;;;;;;2.15;0.63;;;10.50;99.90;;;;;;6582791;21;19997;-92
2024/04/12 06:27:17;;;;;;;3.17;0.60;;;10.50;99.90;;;;;;6579890;21;20004;-90
2024/04/12 06:29:46;;;;;;;1.77;0.77;;;10.60;99.90;;;;;;6579726;21;20067;-91
2024/04/12 06:32:16;;;;;;;1.70;0.57;;;10.60;99.90;;;;;;6583546;21;20043;-92
2024/04/12 06:34:46;;;;;;;3.10;0.90;;;10.60;99.90;;;;;;6592446;21;20044;-92
2024/04/12 06:37:15;;;;;;;2.85;0.70;;;10.70;99.90;;;;;;6584182;21;19996;-91
2024/04/12 06:39:43;;;;;;;2.58;0.63;;;10.70;99.90;;;;;;6578728;21;20013;-92
2024/04/12 06:42:10;;;;;;;3.60;0.88;;;10.70;99.90;;;;;;6579476;21;20000;-92
2024/04/12 06:44:36;;;;;;;3.45;0.90;;;10.80;99.90;;;;;;6578702;21;20025;-91
2024/04/12 06:47:24;;;;;;;;;;;;;;;;;;;;;
2024/04/12 06:49:52;;;;;;;3.90;1.05;;;10.80;99.90;;;;;;6579380;21;19989;-91
2024/04/12 06:52:22;;;;;;;4.60;1.08;;;10.80;99.90;;;;;;6579944;21;19995;-91
2024/04/12 06:54:52;;;;;;;5.05;0.98;;;10.80;99.90;;;;;;6580405;21;20017;-93
2024/04/12 06:57:22;;;;;;;8.77;1.60;;;10.80;99.90;;;;;;6581307;21;19997;-93
2024/04/12 06:59:54;;;;;;;3.85;0.85;;;10.80;99.90;;;;;;6579822;21;20481;-92
2024/04/12 07:02:24;;;;;;;9.23;1.33;;;10.80;99.90;;;;;;6581362;21;20361;-93
2024/04/12 07:04:54;;;;;;;7.07;1.40;;;10.80;99.90;;;;;;6577695;21;19989;-91
2024/04/12 07:07:25;;;;;;;6.17;1.23;;;10.80;99.90;;;;;;6578515;21;19996;-91
2024/04/12 07:10:01;;;;;;;7.75;1.35;;;10.80;99.90;;;;;;6578796;21;20000;-91
2024/04/12 07:12:28;;;;;;;5.53;1.00;;;10.80;99.90;;;;;;6536337;21;20455;-92
2024/04/12 07:14:56;;;;;;;6.72;1.05;;;10.70;99.90;;;;;;6578171;21;20071;-93
2024/04/12 07:17:28;;;;;;;5.80;1.30;;;10.80;99.90;;;;;;6581681;21;20008;-90
2024/04/12 07:20:03;;;;;;;11.07;1.65;;;10.80;99.90;;;;;;6583029;21;19992;-92
2024/04/12 07:22:39;;;;;;;7.95;1.80;;;10.70;99.90;;;;;;6581176;21;20004;-90
2024/04/12 07:25:07;;;;;;;7.60;1.90;;;10.70;99.90;;;;;;6582952;21;20024;-90
2024/04/12 07:27:33;;;;;;;6.75;1.50;;;10.70;99.90;;;;;;6580804;21;19997;-91
2024/04/12 07:29:59;;;;;;;8.30;1.50;;;10.70;99.90;;;;;;6584653;21;19997;-90
2024/04/12 07:32:25;;;;;;;12.13;1.50;;;10.70;99.90;;;;;;6586122;21;19996;-92
2024/04/12 07:34:54;;;;;;;8.52;1.75;;;10.70;99.90;;;;;;6583693;21;20003;-91
2024/04/12 07:37:31;;;;;;;11.63;2.15;;;10.70;99.90;;;;;;6584781;21;20004;-91
2024/04/12 07:42:50;;;;;;;8.98;1.73;;;10.70;99.90;;;;;;6590328;21;20003;-91
2024/04/12 07:45:20;;;;;;;5.80;1.58;;;10.70;99.90;;;;;;6582299;21;19992;-92
2024/04/12 07:47:55;;;;;;;8.63;2.45;;;10.70;99.90;;;;;;6576260;21;19999;-91
2024/04/12 07:50:29;;;;;;;11.65;2.03;;;10.70;99.90;;;;;;6581962;21;20028;-90
2024/04/12 07:53:38;;;;;;;9.07;1.98;;;10.80;99.90;;;;;;6483508;22;19993;-91
2024/04/12 07:56:07;;;;;;;9.55;1.95;;;10.80;99.90;;;;;;6520360;22;19994;-91
2024/04/12 07:58:35;;;;;;;8.63;1.85;;;10.80;99.90;;;;;;6513542;22;20071;-90
2024/04/12 08:01:19;;;;;;;9.73;2.00;;;10.80;99.90;;;;;;6481886;22;20323;-91
2024/04/12 08:03:50;;;;;;;9.05;1.80;;;10.80;99.90;;;;;;6440379;22;19993;-91
2024/04/12 08:06:36;;;;;;;12.40;2.17;;;10.80;99.90;;;;;;6443678;22;20422;-91
2024/04/12 08:09:05;;;;;;;13.48;2.28;;;10.80;99.90;;;;;;6448369;22;19997;-91
2024/04/12 08:11:34;;;;;;;14.32;2.80;;;10.90;99.90;;;;;;6526918;22;19997;-91
2024/04/12 08:14:08;;;;;;;13.90;1.95;;;10.90;99.90;;;;;;6484031;22;19996;-92
2024/04/12 08:16:54;;;;;;;14.45;3.00;;;10.90;99.90;;;;;;6483722;22;20001;-91
2024/04/12 08:19:22;;;;;;;8.90;1.90;;;11.00;99.90;;;;;;6482340;22;20435;-91
2024/04/12 08:21:54;;;;;;;12.15;2.00;;;11.00;99.90;;;;;;6526934;22;20071;-92
2024/04/12 08:24:22;;;;;;;9.45;2.20;;;11.00;99.90;;;;;;6564362;21;20062;-91
2024/04/12 08:26:51;;;;;;;11.20;2.30;;;11.10;99.90;;;;;;6579788;21;20020;-91
2024/04/12 08:29:38;;;;;;;11.30;2.93;;;11.10;99.90;;;;;;6583202;21;19988;-92
2024/04/12 08:32:14;;;;;;;12.25;3.20;;;11.20;99.90;;;;;;6586465;21;20641;-93
2024/04/12 08:34:55;;;;;;;12.40;2.35;;;11.20;99.90;;;;;;6580441;21;20035;-91
2024/04/12 08:37:30;;;;;;;11.57;1.92;;;11.30;99.90;;;;;;6582729;21;20008;-91
2024/04/12 08:39:57;;;;;;;7.10;1.80;;;11.30;99.90;;;;;;6541300;21;20042;-91
2024/04/12 08:42:29;;;;;;;13.82;2.15;;;11.40;99.90;;;;;;6539476;21;20070;-90
2024/04/12 08:45:00;;;;;;;13.85;2.63;;;11.40;99.90;;;;;;6581239;21;20007;-92
2024/04/12 08:50:07;;;;;;;11.75;2.15;;;11.60;99.90;;;;;;6582206;21;20051;-91
2024/04/12 08:52:47;;;;;;;6.32;2.80;;;11.70;99.90;;;;;;6581841;21;20062;-92
2024/04/12 08:55:15;;;;;;;9.32;2.10;;;11.80;99.90;;;;;;6580438;21;19997;-91
2024/04/12 08:57:42;;;;;;;15.20;2.53;;;11.90;99.90;;;;;;6579729;21;20008;-91
2024/04/12 09:00:18;;;;;;;10.27;2.17;;;12.00;99.90;;;;;;6579833;21;20060;-92
2024/04/12 09:02:58;;;;;;;12.23;2.60;;;12.20;99.90;;;;;;6580243;21;20000;-92
2024/04/12 09:05:32;;;;;;;14.68;3.72;;;12.20;99.90;;;;;;6579869;21;20002;-93
2024/04/12 09:08:03;;;;;;;10.43;2.30;;;12.30;99.90;;;;;;6580169;21;19992;-92
2024/04/12 09:10:34;;;;;;;10.77;2.05;;;12.40;99.90;;;;;;6582100;21;20008;-92
2024/04/12 09:13:16;;;;;;;7.13;1.75;;;12.50;99.90;;;;;;6538420;21;19997;-93
2024/04/12 09:15:49;;;;;;;9.07;1.88;;;12.60;99.90;;;;;;6579862;21;20084;-92
2024/04/12 09:18:19;;;;;;;7.97;2.17;;;12.60;99.90;;;;;;6579175;21;20383;-92
2024/04/12 09:21:14;;;;;;;11.15;1.92;;;12.70;99.90;;;;;;6579426;21;19988;-93
2024/04/12 09:23:50;;;;;;;12.98;2.50;;;12.80;99.90;;;;;;6580300;21;19996;-93
2024/04/12 09:26:24;;;;;;;8.88;2.08;;;12.80;99.90;;;;;;6581726;21;19996;-91
2024/04/12 09:29:09;;;;;;;14.32;2.53;;;12.80;99.90;;;;;;6593724;21;20043;-92
2024/04/12 09:34:35;;;;;;;15.38;2.20;;;13.00;99.90;;;;;;6594209;21;20010;-92
2024/04/12 09:37:28;;;;;;;12.82;2.25;;;13.10;99.90;;;;;;6598695;21;20043;-92
2024/04/12 09:45:27;;;;;;;15.43;2.20;;;13.60;99.90;;;;;;6587567;21;20029;-94
2024/04/12 10:38:59;;;;;;;10.52;2.33;;;16.00;99.90;;;;;;6582743;21;20003;-93
2024/04/12 10:41:38;;;;;;;9.93;2.35;;;16.20;99.90;;;;;;6580834;21;19996;-91
2024/04/12 10:44:13;;;;;;;10.10;2.20;;;16.30;99.90;;;;;;6542707;21;20000;-92
2024/04/12 10:46:42;;;;;;;12.88;2.67;;;16.30;99.90;;;;;;6581261;21;19992;-92
2024/04/12 10:49:16;;;;;;;7.53;2.33;;;16.30;99.90;;;;;;6487247;22;20002;-92
2024/04/12 10:51:47;;;;;;;8.00;1.83;;;16.30;99.90;;;;;;6530728;21;19993;-92
2024/04/12 10:54:23;;;;;;;9.35;2.38;;;16.30;99.90;;;;;;6445072;22;20303;-92
2024/04/12 10:56:53;;;;;;;11.07;2.30;;;16.30;99.90;;;;;;6527779;22;20012;-92
2024/04/12 10:59:51;;;;;;;14.75;2.65;;;16.30;99.90;;;;;;6529164;22;20005;-94
2024/04/12 11:02:18;;;;;;;7.18;2.15;;;16.20;99.90;;;;;;6529377;22;20039;-93
2024/04/12 11:07:32;;;;;;;10.20;1.90;;;16.30;99.90;;;;;;6530565;22;20023;-92
2024/04/12 11:10:03;;;;;;;9.02;2.08;;;16.50;99.90;;;;;;6529445;22;20043;-92
2024/04/12 11:12:50;;;;;;;8.40;2.60;;;16.40;99.90;;;;;;6530595;22;19997;-92
2024/04/12 11:32:42;;;;;;;13.95;2.20;;;16.40;99.90;;;;;;6532481;22;20050;-93
2024/04/12 11:35:21;;;;;;;;;;;;;;;;;;;;;
2024/04/12 11:37:55;;;;;;;13.55;2.25;;;16.80;99.90;;;;;;6526070;21;19989;-94
2024/04/12 11:40:27;;;;;;;7.18;1.90;;;16.90;99.90;;;;;;6529077;22;20007;-94
2024/04/12 11:43:13;;;;;;;12.60;2.17;;;16.90;99.90;;;;;;6529287;22;19997;-93
2024/04/12 11:45:42;;;;;;;12.73;2.00;;;16.90;99.60;;;;;;6530926;21;19989;-94
2024/04/12 11:48:31;;;;;;;7.15;2.70;;;16.90;99.20;;;;;;6530013;22;20433;-93
2024/04/12 11:54:31;;;;;;;7.30;2.20;;;16.70;99.30;;;;;;6327043;22;20000;-93
2024/04/12 11:57:00;;;;;;;5.97;2.28;;;16.60;99.20;;;;;;6286017;22;20251;-92
2024/04/12 11:59:30;;;;;;;7.72;2.17;;;16.70;99.50;;;;;;6326370;22;20327;-93
2024/04/12 12:02:04;;;;;;;8.90;2.53;;;16.80;99.70;;;;;;6325117;22;20000;-92
2024/04/12 12:04:30;;;;;;;11.05;3.03;;;16.90;99.10;;;;;;6327175;22;20045;-93
2024/04/12 12:07:02;;;;;;;14.60;3.58;;;17.00;99.10;;;;;;6326256;22;20003;-92
2024/04/12 12:09:36;;;;;;;10.85;2.80;;;17.10;99.50;;;;;;6326334;22;20139;-94
2024/04/12 12:12:12;;;;;;;9.43;2.60;;;17.10;98.90;;;;;;6285599;22;19992;-93
2024/04/12 12:14:42;;;;;;;14.57;2.83;;;17.20;98.70;;;;;;6325138;22;20435;-93
2024/04/12 12:17:10;;;;;;;14.48;2.80;;;17.10;98.30;;;;;;6285833;22;20016;-91
2024/04/12 12:19:37;;;;;;;8.20;2.15;;;17.00;98.10;;;;;;6324878;22;20027;-93
2024/04/12 12:22:03;;;;;;;12.80;2.97;;;16.90;98.50;;;;;;6294185;22;20110;-93
2024/04/12 12:24:30;;;;;;;11.27;2.72;;;16.70;98.00;;;;;;6326235;22;19992;-92
2024/04/12 12:27:01;;;;;;;8.32;2.13;;;16.60;98.70;;;;;;6325937;22;20000;-92
2024/04/12 12:29:29;;;;;;;6.32;1.92;;;16.60;99.40;;;;;;6286862;22;20010;-94
2024/04/12 12:32:01;;;;;;;7.55;1.90;;;16.60;99.40;;;;;;6495206;22;19996;-94
2024/04/12 12:34:38;;;;;;;8.40;2.35;;;16.50;99.20;;;;;;6487200;22;20017;-94
2024/04/12 12:37:09;;;;;;;8.75;1.90;;;16.50;99.20;;;;;;6528822;22;19989;-92
2024/04/12 12:39:37;;;;;;;;;;;16.60;99.10;;;;;;6489711;22;20005;-92
2024/04/12 12:42:23;;;;;;;9.43;1.90;;;16.60;99.00;;;;;;6528149;22;19933;-95
2024/04/12 12:44:56;;;;;;;10.63;2.00;;;16.60;98.50;;;;;;6530253;22;19993;-93
2024/04/12 12:47:21;;;;;;;10.25;2.22;;;16.60;98.00;;;;;;6528977;22;20012;-93
2024/04/12 12:50:01;;;;;;;11.07;2.50;;;16.60;98.20;;;;;;6530660;22;20316;-93
2024/04/12 12:55:33;;;;;;;8.13;2.40;;;16.60;98.00;;;;;;6530462;22;20005;-94
2024/04/12 12:58:09;;;;;;;19.27;4.45;;;16.90;98.20;;;;;;6523139;22;20001;-92
2024/04/12 13:01:17;;;;;;;7.57;1.83;;;17.10;97.80;;;;;;6529217;22;20008;-93
2024/04/12 13:03:49;;;;;;;6.93;1.80;;;17.20;96.00;;;;;;6527660;22;19997;-92
2024/04/12 13:06:21;;;;;;;12.98;2.33;;;17.20;93.80;;;;;;6535235;22;20017;-91
2024/04/12 13:09:17;;;;;;;11.75;2.10;;;17.30;93.80;;;;;;6534878;22;20013;-93
2024/04/12 13:11:46;;;;;;;6.55;1.85;;;17.30;93.20;;;;;;6545974;22;19997;-93
2024/04/12 13:17:12;;;;;;;9.77;1.83;;;17.50;92.60;;;;;;6543841;22;20003;-91
2024/04/12 13:19:56;;;;;;;9.50;1.95;;;17.60;92.10;;;;;;6549706;22;19989;-94
2024/04/12 13:22:31;;;;;;;12.95;2.05;;;17.60;91.10;;;;;;6550722;21;20040;-91
2024/04/12 13:25:01;;;;;;;9.90;1.80;;;17.60;90.10;;;;;;6532217;22;19993;-93
2024/04/12 13:27:36;;;;;;;7.70;2.73;;;17.50;89.30;;;;;;6530167;22;20004;-92
2024/04/12 13:30:14;;;;;;;8.77;2.10;;;17.50;87.80;;;;;;6530995;22;20005;-94
2024/04/12 13:32:58;;;;;;;11.73;2.75;;;17.50;86.70;;;;;;6535147;21;20008;-92
2024/04/12 13:35:24;;;;;;;14.52;2.50;;;17.50;86.50;;;;;;6536362;22;20316;-93
2024/04/12 13:37:52;;;;;;;11.40;2.33;;;17.70;85.60;;;;;;6530520;22;19998;-93
2024/04/12 13:40:18;;;;;;;9.32;2.25;;;17.80;84.40;;;;;;6530028;22;19997;-93
2024/04/12 13:42:49;;;;;;;15.55;1.80;;;17.90;83.20;;;;;;6529979;22;20303;-93
2024/04/12 13:50:58;;;;;;;4.53;1.75;;;18.10;80.80;;;;;;6530970;22;20318;-91
2024/04/12 13:53:35;;;;;;;9.88;2.10;;;18.30;81.10;;;;;;6528881;21;20008;-92
2024/04/12 13:56:25;;;;;;;13.65;2.50;;;18.50;80.40;;;;;;6528824;22;19997;-92
2024/04/12 13:58:59;;;;;;;8.33;1.97;;;18.50;78.60;;;;;;6529561;22;20001;-92
2024/04/12 14:01:28;;;;;;;15.32;2.28;;;18.50;77.80;;;;;;6531849;22;20521;-91
2024/04/12 14:04:04;;;;;;;8.15;1.42;;;18.60;77.00;;;;;;6543141;22;20005;-92
2024/04/12 14:06:33;;;;;;;6.88;1.50;;;18.50;74.80;;;;;;6544236;22;20008;-93
2024/04/12 14:09:03;;;;;;;8.43;1.60;;;18.40;74.30;;;;;;6544342;22;19985;-93
2024/04/12 14:11:29;;;;;;;8.18;1.50;;;18.20;73.20;;;;;;6541840;22;19989;-92
2024/04/12 14:13:55;;;;;;;7.68;1.52;;;18.10;73.50;;;;;;6542773;22;19989;-93
2024/04/12 14:16:31;;;;;;;7.68;1.50;;;18.10;73.50;;;;;;6543536;22;20264;-92
2024/04/12 14:19:22;;;;;;;10.15;1.80;;;18.00;73.40;;;;;;6542873;22;19993;-92
2024/04/12 14:21:48;;;;;;;7.38;1.40;;;18.10;73.50;;;;;;6540646;22;20021;-92
2024/04/12 14:27:03;;;;;;;7.28;1.58;;;18.10;72.70;;;;;;6550446;22;19999;-91
2024/04/12 14:29:36;;;;;;;5.15;1.80;;;18.10;71.40;;;;;;6529182;22;19989;-92
2024/04/12 14:32:06;;;;;;;7.38;1.70;;;18.20;71.40;;;;;;6528550;22;19997;-93
2024/04/12 14:34:32;;;;;;;9.32;1.58;;;18.20;71.70;;;;;;6528515;21;19997;-93
2024/04/12 14:37:04;;;;;;;5.32;1.42;;;18.20;71.80;;;;;;6534060;22;20000;-91
2024/04/12 14:39:32;;;;;;;6.40;1.60;;;18.20;71.90;;;;;;6529861;22;20018;-92
2024/04/12 14:42:02;;;;;;;8.43;1.80;;;18.20;70.90;;;;;;6484533;22;19989;-93
2024/04/12 14:44:36;;;;;;;6.93;1.45;;;18.20;70.20;;;;;;6527035;22;19997;-93
2024/04/12 14:47:04;;;;;;;6.60;1.27;;;18.20;70.20;;;;;;6527848;22;20030;-92
2024/04/12 14:49:30;;;;;;;5.45;1.17;;;18.20;69.90;;;;;;6484137;22;20004;-93
2024/04/12 14:51:58;;;;;;;8.00;1.30;;;18.30;70.00;;;;;;6528878;21;19993;-93
2024/04/12 14:54:24;;;;;;;7.70;1.45;;;18.40;69.60;;;;;;6486572;22;19993;-94
2024/04/12 14:56:53;;;;;;;8.63;1.38;;;18.30;68.90;;;;;;6529601;22;20004;-93
2024/04/12 14:59:21;;;;;;;8.40;1.77;;;18.20;68.40;;;;;;6445044;22;20009;-93